sensor_id;sensor_type;location;lat;lon;timestamp;temperature;humidity
8095;DHT22;4090;49.270;8.696;2023-12-20T00:02:12;5.60;99.90
8095;DHT22;4090;49.270;8.696;2023-12-20T00:04:53;5.60;99.90
8095;DHT22;4090;49.270;8.696;2023-12-20T00:07:37;5.60;99.90
8095;DHT22;4090;49.270;8.696;2023-12-20T00:10:18;5.60;99.90
8095;DHT22;4090;49.270;8.696;2023-12-20T00:13:00;5.60;99.90
8095;DHT22;4090;49.270;8.696;2023-12-20T00:15:42;5.50;99.90
8095;DHT22;4090;49.270;8.696;2023-12-20T00:18:24;5.60;99.90
8095;DHT22;4090;49.270;8.696;2023-12-20T00:21:06;5.60;99.90
8095;DHT22;4090;49.270;8.696;2023-12-20T00:23:49;5.50;99.90
8095;DHT22;4090;49.270;8.696;2023-12-20T00:26:31;5.50;99.90
8095;DHT22;4090;49.270;8.696;2023-12-20T00:29:13;5.50;99.90
8095;DHT22;4090;49.270;8.696;2023-12-20T00:31:55;5.60;99.90
8095;DHT22;4090;49.270;8.696;2023-12-20T00:34:36;5.60;99.90
8095;DHT22;4090;49.270;8.696;2023-12-20T00:37:18;5.60;99.90
8095;DHT22;4090;49.270;8.696;2023-12-20T00:40:01;5.60;99.90
8095;DHT22;4090;49.270;8.696;2023-12-20T00:42:44;5.60;99.90
8095;DHT22;4090;49.270;8.696;2023-12-20T00:45:27;5.60;99.90
8095;DHT22;4090;49.270;8.696;2023-12-20T00:48:09;5.60;99.90
8095;DHT22;4090;49.270;8.696;2023-12-20T00:50:51;5.60;99.90
8095;DHT22;4090;49.270;8.696;2023-12-20T00:53:33;5.60;99.90
8095;DHT22;4090;49.270;8.696;2023-12-20T00:56:16;5.60;99.90
8095;DHT22;4090;49.270;8.696;2023-12-20T00:58:58;5.60;99.90
8095;DHT22;4090;49.270;8.696;2023-12-20T01:01:40;5.60;99.90
8095;DHT22;4090;49.270;8.696;2023-12-20T01:04:22;5.60;99.90
8095;DHT22;4090;49.270;8.696;2023-12-20T01:07:04;5.60;99.90
8095;DHT22;4090;49.270;8.696;2023-12-20T01:09:46;5.60;99.90
8095;DHT22;4090;49.270;8.696;2023-12-20T01:12:29;5.60;99.90
8095;DHT22;4090;49.270;8.696;2023-12-20T01:15:11;5.60;99.90
8095;DHT22;4090;49.270;8.696;2023-12-20T01:17:53;5.60;99.90
8095;DHT22;4090;49.270;8.696;2023-12-20T01:20:37;5.60;99.90
8095;DHT22;4090;49.270;8.696;2023-12-20T01:23:19;5.60;99.90
8095;DHT22;4090;49.270;8.696;2023-12-20T01:26:01;5.60;99.90
8095;DHT22;4090;49.270;8.696;2023-12-20T01:28:44;5.60;99.90
8095;DHT22;4090;49.270;8.696;2023-12-20T01:31:26;5.60;99.90
8095;DHT22;4090;49.270;8.696;2023-12-20T01:34:09;5.60;99.90
8095;DHT22;4090;49.270;8.696;2023-12-20T01:36:51;5.60;99.90
8095;DHT22;4090;49.270;8.696;2023-12-20T01:39:33;5.60;99.90
8095;DHT22;4090;49.270;8.696;2023-12-20T01:42:14;5.60;99.90
8095;DHT22;4090;49.270;8.696;2023-12-20T01:44:58;5.60;99.90
8095;DHT22;4090;49.270;8.696;2023-12-20T01:47:39;5.60;99.90
8095;DHT22;4090;49.270;8.696;2023-12-20T01:50:21;5.60;99.90
8095;DHT22;4090;49.270;8.696;2023-12-20T01:53:04;5.60;99.90
8095;DHT22;4090;49.270;8.696;2023-12-20T01:55:47;5.60;99.90
8095;DHT22;4090;49.270;8.696;2023-12-20T01:58:30;5.60;99.90
8095;DHT22;4090;49.270;8.696;2023-12-20T02:01:14;5.60;99.90
8095;DHT22;4090;49.270;8.696;2023-12-20T02:03:56;5.60;99.90
8095;DHT22;4090;49.270;8.696;2023-12-20T02:06:40;5.60;99.90
8095;DHT22;4090;49.270;8.696;2023-12-20T02:09:22;5.60;99.90
8095;DHT22;4090;49.270;8.696;2023-12-20T02:12:04;5.60;99.90
8095;DHT22;4090;49.270;8.696;2023-12-20T02:14:47;5.60;99.90
8095;DHT22;4090;49.270;8.696;2023-12-20T02:17:30;5.60;99.90
8095;DHT22;4090;49.270;8.696;2023-12-20T02:20:13;5.60;99.90
8095;DHT22;4090;49.270;8.696;2023-12-20T02:22:56;5.60;99.90
8095;DHT22;4090;49.270;8.696;2023-12-20T02:25:38;5.60;99.90
8095;DHT22;4090;49.270;8.696;2023-12-20T02:28:20;5.60;99.90
8095;DHT22;4090;49.270;8.696;2023-12-20T02:31:03;5.60;99.90
8095;DHT22;4090;49.270;8.696;2023-12-20T02:33:45;5.60;99.90
8095;DHT22;4090;49.270;8.696;2023-12-20T02:36:27;5.60;99.90
8095;DHT22;4090;49.270;8.696;2023-12-20T02:39:10;5.60;99.90
8095;DHT22;4090;49.270;8.696;2023-12-20T02:41:51;5.60;99.90
8095;DHT22;4090;49.270;8.696;2023-12-20T02:44:33;5.70;99.90
8095;DHT22;4090;49.270;8.696;2023-12-20T02:47:15;5.60;99.90
8095;DHT22;4090;49.270;8.696;2023-12-20T02:49:57;5.70;99.90
8095;DHT22;4090;49.270;8.696;2023-12-20T02:52:39;5.70;99.90
8095;DHT22;4090;49.270;8.696;2023-12-20T02:55:22;5.70;99.90
8095;DHT22;4090;49.270;8.696;2023-12-20T02:58:04;5.70;99.90
8095;DHT22;4090;49.270;8.696;2023-12-20T03:00:46;5.70;99.90
8095;DHT22;4090;49.270;8.696;2023-12-20T03:03:27;5.60;99.90
8095;DHT22;4090;49.270;8.696;2023-12-20T03:06:09;5.70;99.90
8095;DHT22;4090;49.270;8.696;2023-12-20T03:08:51;5.70;99.90
8095;DHT22;4090;49.270;8.696;2023-12-20T03:11:34;5.70;99.90
8095;DHT22;4090;49.270;8.696;2023-12-20T03:14:16;5.70;99.90
8095;DHT22;4090;49.270;8.696;2023-12-20T03:16:58;5.70;99.90
8095;DHT22;4090;49.270;8.696;2023-12-20T03:19:40;5.70;99.90
8095;DHT22;4090;49.270;8.696;2023-12-20T03:22:22;5.70;99.90
8095;DHT22;4090;49.270;8.696;2023-12-20T03:25:04;5.70;99.90
8095;DHT22;4090;49.270;8.696;2023-12-20T03:27:47;5.70;99.90
8095;DHT22;4090;49.270;8.696;2023-12-20T03:30:29;5.70;99.90
8095;DHT22;4090;49.270;8.696;2023-12-20T03:33:11;5.70;99.90
8095;DHT22;4090;49.270;8.696;2023-12-20T03:35:52;5.70;99.90
8095;DHT22;4090;49.270;8.696;2023-12-20T03:38:34;5.70;99.90
8095;DHT22;4090;49.270;8.696;2023-12-20T03:41:16;5.70;99.90
8095;DHT22;4090;49.270;8.696;2023-12-20T03:43:59;5.70;99.90
8095;DHT22;4090;49.270;8.696;2023-12-20T03:46:41;5.70;99.90
8095;DHT22;4090;49.270;8.696;2023-12-20T03:49:23;5.70;99.90
8095;DHT22;4090;49.270;8.696;2023-12-20T03:52:05;5.70;99.90
8095;DHT22;4090;49.270;8.696;2023-12-20T03:54:47;5.70;99.90
8095;DHT22;4090;49.270;8.696;2023-12-20T03:57:28;5.70;99.90
8095;DHT22;4090;49.270;8.696;2023-12-20T04:00:12;5.70;99.90
8095;DHT22;4090;49.270;8.696;2023-12-20T04:02:54;5.70;99.90
8095;DHT22;4090;49.270;8.696;2023-12-20T04:05:36;5.70;99.90
8095;DHT22;4090;49.270;8.696;2023-12-20T04:08:18;5.70;99.90
8095;DHT22;4090;49.270;8.696;2023-12-20T04:11:00;5.70;99.90
8095;DHT22;4090;49.270;8.696;2023-12-20T04:13:42;5.70;99.90
8095;DHT22;4090;49.270;8.696;2023-12-20T04:16:25;5.70;99.90
8095;DHT22;4090;49.270;8.696;2023-12-20T04:19:07;5.70;99.90
8095;DHT22;4090;49.270;8.696;2023-12-20T04:21:48;5.70;99.90
8095;DHT22;4090;49.270;8.696;2023-12-20T04:24:31;5.70;99.90
8095;DHT22;4090;49.270;8.696;2023-12-20T04:27:12;5.70;99.90
8095;DHT22;4090;49.270;8.696;2023-12-20T04:29:54;5.70;99.90
8095;DHT22;4090;49.270;8.696;2023-12-20T04:32:37;5.80;99.90
8095;DHT22;4090;49.270;8.696;2023-12-20T04:35:19;5.70;99.90
8095;DHT22;4090;49.270;8.696;2023-12-20T04:38:01;5.70;99.90
8095;DHT22;4090;49.270;8.696;2023-12-20T04:40:43;5.70;99.90
8095;DHT22;4090;49.270;8.696;2023-12-20T04:43:25;5.70;99.90
8095;DHT22;4090;49.270;8.696;2023-12-20T04:46:07;5.70;99.90
8095;DHT22;4090;49.270;8.696;2023-12-20T04:48:50;5.80;99.90
8095;DHT22;4090;49.270;8.696;2023-12-20T04:51:33;5.80;99.90
8095;DHT22;4090;49.270;8.696;2023-12-20T04:54:15;5.80;99.90
8095;DHT22;4090;49.270;8.696;2023-12-20T04:56:56;5.80;99.90
8095;DHT22;4090;49.270;8.696;2023-12-20T04:59:38;5.80;99.90
8095;DHT22;4090;49.270;8.696;2023-12-20T05:02:21;5.80;99.90
8095;DHT22;4090;49.270;8.696;2023-12-20T05:05:05;5.80;99.90
8095;DHT22;4090;49.270;8.696;2023-12-20T05:07:47;5.80;99.90
8095;DHT22;4090;49.270;8.696;2023-12-20T05:10:29;5.80;99.90
8095;DHT22;4090;49.270;8.696;2023-12-20T05:13:10;5.80;99.90
8095;DHT22;4090;49.270;8.696;2023-12-20T05:15:52;5.80;99.90
8095;DHT22;4090;49.270;8.696;2023-12-20T05:18:34;5.80;99.90
8095;DHT22;4090;49.270;8.696;2023-12-20T05:21:17;5.80;99.90
8095;DHT22;4090;49.270;8.696;2023-12-20T05:23:59;5.80;99.90
8095;DHT22;4090;49.270;8.696;2023-12-20T05:26:42;5.80;99.90
8095;DHT22;4090;49.270;8.696;2023-12-20T05:29:23;5.80;99.90
8095;DHT22;4090;49.270;8.696;2023-12-20T05:32:06;5.80;99.90
8095;DHT22;4090;49.270;8.696;2023-12-20T05:34:47;5.80;99.90
8095;DHT22;4090;49.270;8.696;2023-12-20T05:37:31;5.80;99.90
8095;DHT22;4090;49.270;8.696;2023-12-20T05:40:13;5.80;99.90
8095;DHT22;4090;49.270;8.696;2023-12-20T05:42:54;5.80;99.90
8095;DHT22;4090;49.270;8.696;2023-12-20T05:45:36;5.80;99.90
8095;DHT22;4090;49.270;8.696;2023-12-20T05:48:18;5.80;99.90
8095;DHT22;4090;49.270;8.696;2023-12-20T05:51:00;5.80;99.90
8095;DHT22;4090;49.270;8.696;2023-12-20T05:53:43;5.80;99.90
8095;DHT22;4090;49.270;8.696;2023-12-20T05:56:25;5.80;99.90
8095;DHT22;4090;49.270;8.696;2023-12-20T05:59:08;5.80;99.90
8095;DHT22;4090;49.270;8.696;2023-12-20T06:01:50;5.80;99.90
8095;DHT22;4090;49.270;8.696;2023-12-20T06:04:31;5.80;99.90
8095;DHT22;4090;49.270;8.696;2023-12-20T06:07:15;5.80;99.90
8095;DHT22;4090;49.270;8.696;2023-12-20T06:09:58;5.80;99.90
8095;DHT22;4090;49.270;8.696;2023-12-20T06:12:40;5.80;99.90
8095;DHT22;4090;49.270;8.696;2023-12-20T06:15:22;5.80;99.90
8095;DHT22;4090;49.270;8.696;2023-12-20T06:18:04;5.80;99.90
8095;DHT22;4090;49.270;8.696;2023-12-20T06:20:46;5.80;99.90
8095;DHT22;4090;49.270;8.696;2023-12-20T06:23:28;5.80;99.90
8095;DHT22;4090;49.270;8.696;2023-12-20T06:26:11;5.90;99.90
8095;DHT22;4090;49.270;8.696;2023-12-20T06:28:53;5.80;99.90
8095;DHT22;4090;49.270;8.696;2023-12-20T06:31:35;5.80;99.90
8095;DHT22;4090;49.270;8.696;2023-12-20T06:34:17;5.90;99.90
8095;DHT22;4090;49.270;8.696;2023-12-20T06:36:59;5.90;99.90
8095;DHT22;4090;49.270;8.696;2023-12-20T06:39:41;5.90;99.90
8095;DHT22;4090;49.270;8.696;2023-12-20T06:42:24;5.90;99.90
8095;DHT22;4090;49.270;8.696;2023-12-20T06:45:06;5.90;99.90
8095;DHT22;4090;49.270;8.696;2023-12-20T06:47:48;5.90;99.90
8095;DHT22;4090;49.270;8.696;2023-12-20T06:50:30;5.90;99.90
8095;DHT22;4090;49.270;8.696;2023-12-20T06:53:12;5.90;99.90
8095;DHT22;4090;49.270;8.696;2023-12-20T06:55:54;5.90;99.90
8095;DHT22;4090;49.270;8.696;2023-12-20T06:58:38;5.90;99.90
8095;DHT22;4090;49.270;8.696;2023-12-20T07:01:20;5.90;99.90
8095;DHT22;4090;49.270;8.696;2023-12-20T07:04:02;5.90;99.90
8095;DHT22;4090;49.270;8.696;2023-12-20T07:06:43;5.90;99.90
8095;DHT22;4090;49.270;8.696;2023-12-20T07:09:25;5.90;99.90
8095;DHT22;4090;49.270;8.696;2023-12-20T07:12:07;5.90;99.90
8095;DHT22;4090;49.270;8.696;2023-12-20T07:14:50;5.90;99.90
8095;DHT22;4090;49.270;8.696;2023-12-20T07:17:32;5.90;99.90
8095;DHT22;4090;49.270;8.696;2023-12-20T07:20:14;5.90;99.90
8095;DHT22;4090;49.270;8.696;2023-12-20T07:22:56;5.90;99.90
8095;DHT22;4090;49.270;8.696;2023-12-20T07:25:38;5.90;99.90
8095;DHT22;4090;49.270;8.696;2023-12-20T07:28:20;5.90;99.90
8095;DHT22;4090;49.270;8.696;2023-12-20T07:31:03;5.90;99.90
8095;DHT22;4090;49.270;8.696;2023-12-20T07:33:45;5.90;99.90
8095;DHT22;4090;49.270;8.696;2023-12-20T07:36:27;5.90;99.90
8095;DHT22;4090;49.270;8.696;2023-12-20T07:39:09;5.90;99.90
8095;DHT22;4090;49.270;8.696;2023-12-20T07:41:51;5.90;99.90
8095;DHT22;4090;49.270;8.696;2023-12-20T07:44:34;5.80;99.90
8095;DHT22;4090;49.270;8.696;2023-12-20T07:47:17;5.80;99.90
8095;DHT22;4090;49.270;8.696;2023-12-20T07:50:02;5.80;99.90
8095;DHT22;4090;49.270;8.696;2023-12-20T07:52:44;5.80;99.90
8095;DHT22;4090;49.270;8.696;2023-12-20T07:55:26;5.80;99.90
8095;DHT22;4090;49.270;8.696;2023-12-20T07:58:08;5.80;99.90
8095;DHT22;4090;49.270;8.696;2023-12-20T08:00:50;5.80;99.90
8095;DHT22;4090;49.270;8.696;2023-12-20T08:03:33;5.80;99.90
8095;DHT22;4090;49.270;8.696;2023-12-20T08:06:15;5.80;99.90
8095;DHT22;4090;49.270;8.696;2023-12-20T08:08:57;5.80;99.90
8095;DHT22;4090;49.270;8.696;2023-12-20T08:11:39;5.80;99.90
8095;DHT22;4090;49.270;8.696;2023-12-20T08:14:21;5.80;99.90
8095;DHT22;4090;49.270;8.696;2023-12-20T08:17:03;5.80;99.90
8095;DHT22;4090;49.270;8.696;2023-12-20T08:19:47;5.80;99.90
8095;DHT22;4090;49.270;8.696;2023-12-20T08:22:28;5.70;99.90
8095;DHT22;4090;49.270;8.696;2023-12-20T08:25:10;5.70;99.90
8095;DHT22;4090;49.270;8.696;2023-12-20T08:27:52;5.70;99.90
8095;DHT22;4090;49.270;8.696;2023-12-20T08:30:34;5.70;99.90
8095;DHT22;4090;49.270;8.696;2023-12-20T08:33:16;5.70;99.90
8095;DHT22;4090;49.270;8.696;2023-12-20T08:35:59;5.70;99.90
8095;DHT22;4090;49.270;8.696;2023-12-20T08:38:41;5.70;99.90
8095;DHT22;4090;49.270;8.696;2023-12-20T08:41:23;5.70;99.90
8095;DHT22;4090;49.270;8.696;2023-12-20T08:44:05;5.70;99.90
8095;DHT22;4090;49.270;8.696;2023-12-20T08:46:46;5.70;99.90
8095;DHT22;4090;49.270;8.696;2023-12-20T08:49:28;5.70;99.90
8095;DHT22;4090;49.270;8.696;2023-12-20T08:52:12;5.70;99.90
8095;DHT22;4090;49.270;8.696;2023-12-20T08:54:53;5.70;99.90
8095;DHT22;4090;49.270;8.696;2023-12-20T08:57:35;5.70;99.90
8095;DHT22;4090;49.270;8.696;2023-12-20T09:00:18;5.70;99.90
8095;DHT22;4090;49.270;8.696;2023-12-20T09:03:01;5.70;99.90
8095;DHT22;4090;49.270;8.696;2023-12-20T09:05:43;5.70;99.90
8095;DHT22;4090;49.270;8.696;2023-12-20T09:08:26;5.70;99.90
8095;DHT22;4090;49.270;8.696;2023-12-20T09:11:08;5.80;99.90
8095;DHT22;4090;49.270;8.696;2023-12-20T09:13:50;5.80;99.90
8095;DHT22;4090;49.270;8.696;2023-12-20T09:16:32;5.80;99.90
8095;DHT22;4090;49.270;8.696;2023-12-20T09:19:14;5.80;99.90
8095;DHT22;4090;49.270;8.696;2023-12-20T09:21:56;5.80;99.90
8095;DHT22;4090;49.270;8.696;2023-12-20T09:24:39;5.80;99.90
8095;DHT22;4090;49.270;8.696;2023-12-20T09:27:21;5.80;99.90
8095;DHT22;4090;49.270;8.696;2023-12-20T09:30:03;5.80;99.90
8095;DHT22;4090;49.270;8.696;2023-12-20T09:32:46;5.80;99.90
8095;DHT22;4090;49.270;8.696;2023-12-20T09:35:28;5.80;99.90
8095;DHT22;4090;49.270;8.696;2023-12-20T09:38:10;5.80;99.90
8095;DHT22;4090;49.270;8.696;2023-12-20T09:40:54;5.80;99.90
8095;DHT22;4090;49.270;8.696;2023-12-20T09:43:37;5.80;99.90
8095;DHT22;4090;49.270;8.696;2023-12-20T09:46:21;5.90;99.90
8095;DHT22;4090;49.270;8.696;2023-12-20T09:49:05;5.90;99.90
8095;DHT22;4090;49.270;8.696;2023-12-20T09:51:48;5.90;99.90
8095;DHT22;4090;49.270;8.696;2023-12-20T09:54:31;5.90;99.90
8095;DHT22;4090;49.270;8.696;2023-12-20T09:57:15;6.00;99.90
8095;DHT22;4090;49.270;8.696;2023-12-20T09:59:56;6.10;99.90
8095;DHT22;4090;49.270;8.696;2023-12-20T10:02:42;6.10;99.90
8095;DHT22;4090;49.270;8.696;2023-12-20T10:05:27;6.10;99.90
8095;DHT22;4090;49.270;8.696;2023-12-20T10:08:09;6.20;99.90
8095;DHT22;4090;49.270;8.696;2023-12-20T10:10:51;6.20;99.90
8095;DHT22;4090;49.270;8.696;2023-12-20T10:13:39;6.30;99.90
8095;DHT22;4090;49.270;8.696;2023-12-20T10:16:24;6.30;99.90
8095;DHT22;4090;49.270;8.696;2023-12-20T10:19:06;6.30;99.90
8095;DHT22;4090;49.270;8.696;2023-12-20T10:21:48;6.40;99.90
8095;DHT22;4090;49.270;8.696;2023-12-20T10:24:30;6.60;99.90
8095;DHT22;4090;49.270;8.696;2023-12-20T10:27:12;6.70;99.90
8095;DHT22;4090;49.270;8.696;2023-12-20T10:29:55;6.70;99.90
8095;DHT22;4090;49.270;8.696;2023-12-20T10:32:40;6.70;99.90
8095;DHT22;4090;49.270;8.696;2023-12-20T10:35:22;6.70;99.90
8095;DHT22;4090;49.270;8.696;2023-12-20T10:38:05;6.60;99.90
8095;DHT22;4090;49.270;8.696;2023-12-20T10:40:47;6.70;99.90
8095;DHT22;4090;49.270;8.696;2023-12-20T10:43:30;6.70;99.90
8095;DHT22;4090;49.270;8.696;2023-12-20T10:46:15;6.70;99.90
8095;DHT22;4090;49.270;8.696;2023-12-20T10:48:57;6.70;99.90
8095;DHT22;4090;49.270;8.696;2023-12-20T10:51:39;6.70;99.90
8095;DHT22;4090;49.270;8.696;2023-12-20T10:54:22;6.70;99.90
8095;DHT22;4090;49.270;8.696;2023-12-20T10:57:05;6.80;99.90
8095;DHT22;4090;49.270;8.696;2023-12-20T10:59:49;6.90;99.90
8095;DHT22;4090;49.270;8.696;2023-12-20T11:02:39;6.90;99.90
8095;DHT22;4090;49.270;8.696;2023-12-20T11:05:31;6.70;99.90
8095;DHT22;4090;49.270;8.696;2023-12-20T11:08:20;6.80;99.90
8095;DHT22;4090;49.270;8.696;2023-12-20T11:11:10;6.80;99.90
8095;DHT22;4090;49.270;8.696;2023-12-20T11:13:57;6.80;99.90
8095;DHT22;4090;49.270;8.696;2023-12-20T11:16:41;6.70;99.90
8095;DHT22;4090;49.270;8.696;2023-12-20T11:19:24;6.70;99.90
8095;DHT22;4090;49.270;8.696;2023-12-20T11:22:05;6.70;99.90
8095;DHT22;4090;49.270;8.696;2023-12-20T11:24:48;6.70;99.90
8095;DHT22;4090;49.270;8.696;2023-12-20T11:27:30;6.70;99.90
8095;DHT22;4090;49.270;8.696;2023-12-20T11:30:14;6.70;99.90
8095;DHT22;4090;49.270;8.696;2023-12-20T11:32:57;6.70;99.90
8095;DHT22;4090;49.270;8.696;2023-12-20T11:35:40;6.60;99.90
8095;DHT22;4090;49.270;8.696;2023-12-20T11:38:23;6.70;99.90
8095;DHT22;4090;49.270;8.696;2023-12-20T11:41:05;6.70;99.90
8095;DHT22;4090;49.270;8.696;2023-12-20T11:43:47;6.60;99.90
8095;DHT22;4090;49.270;8.696;2023-12-20T11:46:31;6.60;99.90
8095;DHT22;4090;49.270;8.696;2023-12-20T11:49:14;6.60;99.90
8095;DHT22;4090;49.270;8.696;2023-12-20T11:51:57;6.60;99.90
8095;DHT22;4090;49.270;8.696;2023-12-20T11:54:40;6.60;99.90
8095;DHT22;4090;49.270;8.696;2023-12-20T11:57:22;6.60;99.90
8095;DHT22;4090;49.270;8.696;2023-12-20T12:00:05;6.60;99.90
8095;DHT22;4090;49.270;8.696;2023-12-20T12:02:57;6.60;99.90
8095;DHT22;4090;49.270;8.696;2023-12-20T12:05:39;6.60;99.90
8095;DHT22;4090;49.270;8.696;2023-12-20T12:08:22;6.60;99.90
8095;DHT22;4090;49.270;8.696;2023-12-20T12:11:04;6.60;99.90
8095;DHT22;4090;49.270;8.696;2023-12-20T12:13:46;6.60;99.90
8095;DHT22;4090;49.270;8.696;2023-12-20T12:16:29;6.60;99.90
8095;DHT22;4090;49.270;8.696;2023-12-20T12:19:20;6.60;99.90
8095;DHT22;4090;49.270;8.696;2023-12-20T12:22:06;6.60;99.90
8095;DHT22;4090;49.270;8.696;2023-12-20T12:24:52;6.60;99.90
8095;DHT22;4090;49.270;8.696;2023-12-20T12:27:34;6.60;99.90
8095;DHT22;4090;49.270;8.696;2023-12-20T12:30:16;6.60;99.90
8095;DHT22;4090;49.270;8.696;2023-12-20T12:32:58;6.60;99.90
8095;DHT22;4090;49.270;8.696;2023-12-20T12:35:40;6.60;99.90
8095;DHT22;4090;49.270;8.696;2023-12-20T12:38:23;6.60;99.90
8095;DHT22;4090;49.270;8.696;2023-12-20T12:41:07;6.60;99.90
8095;DHT22;4090;49.270;8.696;2023-12-20T12:43:48;6.60;99.90
8095;DHT22;4090;49.270;8.696;2023-12-20T12:46:30;6.60;99.90
8095;DHT22;4090;49.270;8.696;2023-12-20T12:49:13;6.50;99.90
8095;DHT22;4090;49.270;8.696;2023-12-20T12:51:55;6.50;99.90
8095;DHT22;4090;49.270;8.696;2023-12-20T12:54:39;6.50;99.90
8095;DHT22;4090;49.270;8.696;2023-12-20T12:57:23;6.50;99.90
8095;DHT22;4090;49.270;8.696;2023-12-20T13:00:06;6.50;99.90
8095;DHT22;4090;49.270;8.696;2023-12-20T13:02:49;6.50;99.90
8095;DHT22;4090;49.270;8.696;2023-12-20T13:05:32;6.50;99.90
8095;DHT22;4090;49.270;8.696;2023-12-20T13:08:14;6.50;99.90
8095;DHT22;4090;49.270;8.696;2023-12-20T13:10:56;6.50;99.90
8095;DHT22;4090;49.270;8.696;2023-12-20T13:13:42;6.50;99.90
8095;DHT22;4090;49.270;8.696;2023-12-20T13:16:24;6.50;99.90
8095;DHT22;4090;49.270;8.696;2023-12-20T13:19:06;6.50;99.90
8095;DHT22;4090;49.270;8.696;2023-12-20T13:21:48;6.40;99.90
8095;DHT22;4090;49.270;8.696;2023-12-20T13:24:30;6.50;99.90
8095;DHT22;4090;49.270;8.696;2023-12-20T13:27:13;6.50;99.90
8095;DHT22;4090;49.270;8.696;2023-12-20T13:29:56;6.40;99.90
8095;DHT22;4090;49.270;8.696;2023-12-20T13:32:38;6.40;99.90
8095;DHT22;4090;49.270;8.696;2023-12-20T13:35:20;6.40;99.90
8095;DHT22;4090;49.270;8.696;2023-12-20T13:38:02;6.40;99.90
8095;DHT22;4090;49.270;8.696;2023-12-20T13:40:44;6.40;99.90
8095;DHT22;4090;49.270;8.696;2023-12-20T13:43:26;6.40;99.90
8095;DHT22;4090;49.270;8.696;2023-12-20T13:46:09;6.40;99.90
8095;DHT22;4090;49.270;8.696;2023-12-20T13:48:51;6.50;99.90
8095;DHT22;4090;49.270;8.696;2023-12-20T13:51:33;6.50;99.90
8095;DHT22;4090;49.270;8.696;2023-12-20T13:54:14;6.50;99.90
8095;DHT22;4090;49.270;8.696;2023-12-20T13:56:59;6.50;99.90
8095;DHT22;4090;49.270;8.696;2023-12-20T13:59:41;6.50;99.90
8095;DHT22;4090;49.270;8.696;2023-12-20T14:02:24;6.50;99.90
8095;DHT22;4090;49.270;8.696;2023-12-20T14:05:08;6.50;99.90
8095;DHT22;4090;49.270;8.696;2023-12-20T14:07:50;6.40;99.90
8095;DHT22;4090;49.270;8.696;2023-12-20T14:10:31;6.40;99.90
8095;DHT22;4090;49.270;8.696;2023-12-20T14:13:13;6.40;99.90
8095;DHT22;4090;49.270;8.696;2023-12-20T14:15:55;6.40;99.90
8095;DHT22;4090;49.270;8.696;2023-12-20T14:18:38;6.40;99.90
8095;DHT22;4090;49.270;8.696;2023-12-20T14:21:21;6.40;99.90
8095;DHT22;4090;49.270;8.696;2023-12-20T14:24:05;6.40;99.90
8095;DHT22;4090;49.270;8.696;2023-12-20T14:26:47;6.40;99.90
8095;DHT22;4090;49.270;8.696;2023-12-20T14:29:29;6.40;99.90
8095;DHT22;4090;49.270;8.696;2023-12-20T14:32:10;6.30;99.90
8095;DHT22;4090;49.270;8.696;2023-12-20T14:34:55;6.30;99.90
8095;DHT22;4090;49.270;8.696;2023-12-20T14:37:37;6.30;99.90
8095;DHT22;4090;49.270;8.696;2023-12-20T14:40:20;6.30;99.90
8095;DHT22;4090;49.270;8.696;2023-12-20T14:43:02;6.30;99.90
8095;DHT22;4090;49.270;8.696;2023-12-20T14:45:45;6.30;99.90
8095;DHT22;4090;49.270;8.696;2023-12-20T14:48:27;6.30;99.90
8095;DHT22;4090;49.270;8.696;2023-12-20T14:51:10;6.30;99.90
8095;DHT22;4090;49.270;8.696;2023-12-20T14:53:52;6.30;99.90
8095;DHT22;4090;49.270;8.696;2023-12-20T14:56:34;6.30;99.90
8095;DHT22;4090;49.270;8.696;2023-12-20T14:59:15;6.30;99.90
8095;DHT22;4090;49.270;8.696;2023-12-20T15:01:57;6.30;99.90
8095;DHT22;4090;49.270;8.696;2023-12-20T15:04:39;6.30;99.90
8095;DHT22;4090;49.270;8.696;2023-12-20T15:07:22;6.30;99.90
8095;DHT22;4090;49.270;8.696;2023-12-20T15:10:05;6.30;99.90
8095;DHT22;4090;49.270;8.696;2023-12-20T15:12:46;6.30;99.90
8095;DHT22;4090;49.270;8.696;2023-12-20T15:15:28;6.30;99.90
8095;DHT22;4090;49.270;8.696;2023-12-20T15:18:10;6.30;99.90
8095;DHT22;4090;49.270;8.696;2023-12-20T15:20:52;6.30;99.90
8095;DHT22;4090;49.270;8.696;2023-12-20T15:23:35;6.30;99.90
8095;DHT22;4090;49.270;8.696;2023-12-20T15:26:17;6.20;99.90
8095;DHT22;4090;49.270;8.696;2023-12-20T15:28:59;6.20;99.90
8095;DHT22;4090;49.270;8.696;2023-12-20T15:31:42;6.20;99.90
8095;DHT22;4090;49.270;8.696;2023-12-20T15:34:25;6.20;99.90
8095;DHT22;4090;49.270;8.696;2023-12-20T15:37:06;6.20;99.90
8095;DHT22;4090;49.270;8.696;2023-12-20T15:39:50;6.20;99.90
8095;DHT22;4090;49.270;8.696;2023-12-20T15:42:32;6.20;99.90
8095;DHT22;4090;49.270;8.696;2023-12-20T15:45:16;6.20;99.90
8095;DHT22;4090;49.270;8.696;2023-12-20T15:47:59;6.20;99.90
8095;DHT22;4090;49.270;8.696;2023-12-20T15:50:41;6.20;99.90
8095;DHT22;4090;49.270;8.696;2023-12-20T15:53:23;6.20;99.90
8095;DHT22;4090;49.270;8.696;2023-12-20T15:56:06;6.20;99.90
8095;DHT22;4090;49.270;8.696;2023-12-20T15:58:48;6.20;99.90
8095;DHT22;4090;49.270;8.696;2023-12-20T16:01:32;6.20;99.90
8095;DHT22;4090;49.270;8.696;2023-12-20T16:04:16;6.20;99.90
8095;DHT22;4090;49.270;8.696;2023-12-20T16:06:58;6.20;99.90
8095;DHT22;4090;49.270;8.696;2023-12-20T16:09:39;6.30;99.90
8095;DHT22;4090;49.270;8.696;2023-12-20T16:12:23;6.30;99.90
8095;DHT22;4090;49.270;8.696;2023-12-20T16:15:06;6.30;99.90
8095;DHT22;4090;49.270;8.696;2023-12-20T16:17:49;6.30;99.90
8095;DHT22;4090;49.270;8.696;2023-12-20T16:20:30;6.30;99.90
8095;DHT22;4090;49.270;8.696;2023-12-20T16:23:12;6.30;99.90
8095;DHT22;4090;49.270;8.696;2023-12-20T16:25:54;6.30;99.90
8095;DHT22;4090;49.270;8.696;2023-12-20T16:28:37;6.30;99.90
8095;DHT22;4090;49.270;8.696;2023-12-20T16:31:19;6.30;99.90
8095;DHT22;4090;49.270;8.696;2023-12-20T16:34:01;6.30;99.90
8095;DHT22;4090;49.270;8.696;2023-12-20T16:36:51;6.30;99.90
8095;DHT22;4090;49.270;8.696;2023-12-20T16:39:33;6.30;99.90
8095;DHT22;4090;49.270;8.696;2023-12-20T16:42:14;6.30;99.90
8095;DHT22;4090;49.270;8.696;2023-12-20T16:44:58;6.30;99.90
8095;DHT22;4090;49.270;8.696;2023-12-20T16:47:40;6.30;99.90
8095;DHT22;4090;49.270;8.696;2023-12-20T16:50:21;6.30;99.90
8095;DHT22;4090;49.270;8.696;2023-12-20T16:53:03;6.30;99.90
8095;DHT22;4090;49.270;8.696;2023-12-20T16:55:45;6.40;99.90
8095;DHT22;4090;49.270;8.696;2023-12-20T16:58:27;6.40;99.90
8095;DHT22;4090;49.270;8.696;2023-12-20T17:01:10;6.40;99.90
8095;DHT22;4090;49.270;8.696;2023-12-20T17:03:54;6.40;99.90
8095;DHT22;4090;49.270;8.696;2023-12-20T17:06:36;6.40;99.90
8095;DHT22;4090;49.270;8.696;2023-12-20T17:09:18;6.50;99.90
8095;DHT22;4090;49.270;8.696;2023-12-20T17:12:00;6.50;99.90
8095;DHT22;4090;49.270;8.696;2023-12-20T17:14:42;6.50;99.90
8095;DHT22;4090;49.270;8.696;2023-12-20T17:17:26;6.50;99.90
8095;DHT22;4090;49.270;8.696;2023-12-20T17:20:08;6.50;99.90
8095;DHT22;4090;49.270;8.696;2023-12-20T17:22:50;6.50;99.90
8095;DHT22;4090;49.270;8.696;2023-12-20T17:25:32;6.50;99.90
8095;DHT22;4090;49.270;8.696;2023-12-20T17:28:19;6.50;99.90
8095;DHT22;4090;49.270;8.696;2023-12-20T17:31:00;6.60;99.90
8095;DHT22;4090;49.270;8.696;2023-12-20T17:33:44;6.60;99.90
8095;DHT22;4090;49.270;8.696;2023-12-20T17:36:25;6.60;99.90
8095;DHT22;4090;49.270;8.696;2023-12-20T17:39:07;6.60;99.90
8095;DHT22;4090;49.270;8.696;2023-12-20T17:41:50;6.60;99.90
8095;DHT22;4090;49.270;8.696;2023-12-20T17:44:32;6.60;99.90
8095;DHT22;4090;49.270;8.696;2023-12-20T17:47:14;6.60;99.90
8095;DHT22;4090;49.270;8.696;2023-12-20T17:49:57;6.60;99.90
8095;DHT22;4090;49.270;8.696;2023-12-20T17:52:39;6.60;99.90
8095;DHT22;4090;49.270;8.696;2023-12-20T17:55:21;6.60;99.90
8095;DHT22;4090;49.270;8.696;2023-12-20T17:58:04;6.60;99.90